createdAt,value
2018-07-04T00:01:15.361Z,50.27
2018-07-04T00:03:55.953Z,50.93
2018-07-04T00:06:36.593Z,50.91
2018-07-04T00:09:17.028Z,50.86
2018-07-04T00:11:57.586Z,51.60
2018-07-04T00:14:37.960Z,51.04
2018-07-04T00:17:18.493Z,51.39
2018-07-04T00:19:58.881Z,52.21
2018-07-04T00:22:39.552Z,52.53
2018-07-04T00:25:20.074Z,52.00
2018-07-04T00:28:00.701Z,51.58
2018-07-04T00:30:41.229Z,51.56
2018-07-04T00:33:21.820Z,51.56
2018-07-04T00:36:02.316Z,53.11
2018-07-04T00:38:42.899Z,53.41
2018-07-04T00:41:23.528Z,54.02
2018-07-04T00:44:03.960Z,52.91
2018-07-04T00:46:44.552Z,54.35
2018-07-04T00:49:25.196Z,55.01
2018-07-04T00:52:06.007Z,54.59
2018-07-04T00:54:46.625Z,54.83
2018-07-04T00:57:27.225Z,54.63
2018-07-04T01:00:07.694Z,53.31
2018-07-04T01:02:48.342Z,52.38
2018-07-04T01:05:28.909Z,51.13
2018-07-04T01:08:09.391Z,52.17
2018-07-04T01:10:49.897Z,53.44
2018-07-04T01:13:30.533Z,54.08
2018-07-04T01:16:11.021Z,54.21
2018-07-04T01:18:51.557Z,52.87
2018-07-04T01:21:32.172Z,51.74
2018-07-04T01:24:12.659Z,53.02
2018-07-04T01:26:53.637Z,54.31
2018-07-04T01:29:34.280Z,54.40
2018-07-04T01:32:14.969Z,54.64
2018-07-04T01:34:55.424Z,53.80
2018-07-04T01:37:36.237Z,54.05
2018-07-04T01:40:16.777Z,54.49
2018-07-04T01:42:57.438Z,54.71
2018-07-04T01:45:37.861Z,55.49
2018-07-04T01:48:18.468Z,55.38
2018-07-04T01:50:58.989Z,55.19
2018-07-04T01:53:39.507Z,54.76
2018-07-04T01:56:20.125Z,55.08
2018-07-04T01:59:00.653Z,55.78
2018-07-04T02:01:41.305Z,55.41
2018-07-04T02:04:21.979Z,55.47
2018-07-04T02:07:02.568Z,55.22
2018-07-04T02:09:43.184Z,55.59
2018-07-04T02:12:23.718Z,55.32
2018-07-04T02:15:04.196Z,55.67
2018-07-04T02:17:44.672Z,55.70
2018-07-04T02:20:25.329Z,55.75
2018-07-04T02:23:05.897Z,54.63
2018-07-04T02:25:46.469Z,55.00
2018-07-04T02:28:27.076Z,54.59
2018-07-04T02:31:07.544Z,56.12
2018-07-04T02:33:48.129Z,56.42
2018-07-04T02:36:28.551Z,56.04
2018-07-04T02:39:09.126Z,55.68
2018-07-04T02:41:49.696Z,56.97
2018-07-04T02:44:30.093Z,56.96
2018-07-04T02:47:14.780Z,57.13
2018-07-04T02:49:55.235Z,55.93
2018-07-04T02:52:35.725Z,54.77
2018-07-04T02:55:16.368Z,54.75
2018-07-04T02:57:57.137Z,54.85
2018-07-04T03:00:37.933Z,55.02
2018-07-04T03:03:18.470Z,55.95
2018-07-04T03:05:59.083Z,56.31
2018-07-04T03:08:39.682Z,59.09
2018-07-04T03:11:20.193Z,58.36
2018-07-04T03:14:00.723Z,57.71
2018-07-04T03:16:41.379Z,58.28
2018-07-04T03:19:21.898Z,58.10
2018-07-04T03:22:02.516Z,58.27
2018-07-04T03:24:43.120Z,58.05
2018-07-04T03:27:23.724Z,58.22
2018-07-04T03:30:04.379Z,58.99
2018-07-04T03:32:44.875Z,58.47
2018-07-04T03:35:25.301Z,58.50
2018-07-04T03:38:05.735Z,58.01
2018-07-04T03:40:46.182Z,59.29
2018-07-04T03:43:26.661Z,58.94
2018-07-04T03:46:07.179Z,59.00
2018-07-04T03:48:47.805Z,59.82
2018-07-04T03:51:28.184Z,59.30
2018-07-04T03:54:08.848Z,57.73
2018-07-04T03:56:49.389Z,58.73
2018-07-04T03:59:29.969Z,58.07
2018-07-04T04:02:10.329Z,58.27
2018-07-04T04:04:50.667Z,57.56
2018-07-04T04:07:31.258Z,57.22
2018-07-04T04:10:11.860Z,57.33
2018-07-04T04:12:52.427Z,59.00
2018-07-04T04:15:32.993Z,58.28
2018-07-04T04:18:13.627Z,58.14
2018-07-04T04:20:54.301Z,58.82
2018-07-04T04:23:34.737Z,58.70
2018-07-04T04:26:15.333Z,57.77
2018-07-04T04:28:55.901Z,59.24
2018-07-04T04:31:36.336Z,58.35
2018-07-04T04:34:16.920Z,57.87
2018-07-04T04:36:57.341Z,55.98
2018-07-04T04:39:38.049Z,55.49
2018-07-04T04:42:18.513Z,56.09
2018-07-04T04:44:59.047Z,55.07
2018-07-04T04:47:39.519Z,54.57
2018-07-04T04:50:20.009Z,53.17
2018-07-04T04:53:00.448Z,51.92
2018-07-04T04:55:40.946Z,51.40
2018-07-04T04:58:21.450Z,49.71
2018-07-04T05:01:02.036Z,50.79
2018-07-04T05:03:42.677Z,50.23
2018-07-04T05:06:23.237Z,49.34
2018-07-04T05:09:04.009Z,49.44
2018-07-04T05:11:44.584Z,48.96
2018-07-04T05:14:25.160Z,48.21
2018-07-04T05:17:05.778Z,46.49
2018-07-04T05:19:46.233Z,46.13
2018-07-04T05:22:26.780Z,45.79
2018-07-04T05:25:07.227Z,46.24
2018-07-04T05:27:47.789Z,46.40
2018-07-04T05:30:28.132Z,44.69
2018-07-04T05:33:08.661Z,44.43
2018-07-04T05:35:49.261Z,44.87
2018-07-04T05:38:29.765Z,43.58
2018-07-04T05:41:10.244Z,44.41
2018-07-04T05:43:50.701Z,42.94
2018-07-04T05:46:31.165Z,43.20
2018-07-04T05:49:11.750Z,42.99
2018-07-04T05:51:52.297Z,42.85
2018-07-04T05:54:32.998Z,43.88
2018-07-04T05:57:13.670Z,43.57
2018-07-04T05:59:54.238Z,43.69
2018-07-04T06:02:35.091Z,44.91
2018-07-04T06:05:15.686Z,44.31
2018-07-04T06:07:56.313Z,45.19
2018-07-04T06:10:36.814Z,43.85
2018-07-04T06:13:17.368Z,43.49
2018-07-04T06:15:58.001Z,43.53
2018-07-04T06:18:38.545Z,43.05
2018-07-04T06:21:19.086Z,43.65
2018-07-04T06:23:59.697Z,43.03
2018-07-04T06:26:40.261Z,43.35
2018-07-04T06:29:20.813Z,42.85
2018-07-04T06:32:01.302Z,42.66
2018-07-04T06:34:41.851Z,42.34
2018-07-04T06:37:22.415Z,42.10
2018-07-04T06:39:50.373Z,43.34
2018-07-04T06:42:18.464Z,41.48
2018-07-04T06:44:46.417Z,42.34
2018-07-04T06:47:14.399Z,41.83
2018-07-04T06:49:42.377Z,40.31
2018-07-04T06:52:10.360Z,39.39
2018-07-04T06:54:38.294Z,39.02
2018-07-04T06:57:06.360Z,39.46
2018-07-04T06:59:34.303Z,37.95
2018-07-04T07:02:10.764Z,36.45
2018-07-04T07:04:52.165Z,37.25
2018-07-04T07:07:32.977Z,37.89
2018-07-04T07:10:13.494Z,36.83
2018-07-04T07:12:54.021Z,37.04
2018-07-04T07:15:34.449Z,35.39
2018-07-04T07:18:15.547Z,36.49
2018-07-04T07:20:56.077Z,36.39
2018-07-04T07:23:36.454Z,35.67
2018-07-04T07:26:17.037Z,35.45
2018-07-04T07:28:57.700Z,34.83
2018-07-04T07:31:38.293Z,35.21
2018-07-04T07:34:18.913Z,34.41
2018-07-04T07:36:59.310Z,33.03
2018-07-04T07:39:39.821Z,33.75
2018-07-04T07:42:20.377Z,33.84
2018-07-04T07:45:00.777Z,32.79
2018-07-04T07:47:41.289Z,30.62
2018-07-04T07:50:21.885Z,31.82
2018-07-04T07:53:02.466Z,31.54
2018-07-04T07:55:43.056Z,31.45
2018-07-04T07:58:23.593Z,31.41
2018-07-04T08:01:04.020Z,31.06
2018-07-04T08:03:44.513Z,30.63
2018-07-04T08:06:25.274Z,29.95
2018-07-04T08:09:06.036Z,28.62
2018-07-04T08:11:46.576Z,29.11
2018-07-04T08:14:27.119Z,27.67
2018-07-04T08:17:07.597Z,27.85
2018-07-04T08:19:48.171Z,28.14
2018-07-04T08:22:28.853Z,27.67
2018-07-04T08:25:09.394Z,27.67
2018-07-04T08:27:49.858Z,26.72
2018-07-04T08:30:30.424Z,26.71
2018-07-04T08:33:11.161Z,25.54
2018-07-04T08:35:51.602Z,25.23
2018-07-04T08:38:32.122Z,26.09
2018-07-04T08:41:12.896Z,26.52
2018-07-04T08:43:53.436Z,25.40
2018-07-04T08:46:33.924Z,23.94
2018-07-04T08:49:14.592Z,23.74
2018-07-04T08:51:55.128Z,23.27
2018-07-04T08:54:35.590Z,22.92
2018-07-04T08:57:16.071Z,23.29
2018-07-04T08:59:56.590Z,22.88
2018-07-04T09:02:37.037Z,21.98
2018-07-04T09:05:17.606Z,22.47
2018-07-04T09:07:58.211Z,23.21
2018-07-04T09:10:38.715Z,23.28
2018-07-04T09:13:19.230Z,22.26
2018-07-04T09:16:00.192Z,22.10
2018-07-04T09:18:40.766Z,21.22
2018-07-04T09:21:21.278Z,20.60
2018-07-04T09:24:01.854Z,20.88
2018-07-04T09:26:42.289Z,20.65
2018-07-04T09:29:22.789Z,20.51
2018-07-04T09:32:03.234Z,19.71
2018-07-04T09:34:43.605Z,19.04
2018-07-04T09:37:24.025Z,19.01
2018-07-04T09:40:04.620Z,18.54
2018-07-04T09:42:45.094Z,17.90
2018-07-04T09:45:25.689Z,17.57
2018-07-04T09:48:06.272Z,17.66
2018-07-04T09:50:46.901Z,18.34
2018-07-04T09:53:27.488Z,19.12
2018-07-04T09:56:08.067Z,17.38
2018-07-04T09:58:48.573Z,17.56
2018-07-04T10:01:29.138Z,16.83
2018-07-04T10:04:09.734Z,18.90
2018-07-04T10:06:50.286Z,17.08
2018-07-04T10:09:30.801Z,17.87
2018-07-04T10:12:11.325Z,18.62
2018-07-04T10:14:51.930Z,17.98
2018-07-04T10:17:32.486Z,18.59
2018-07-04T10:20:12.993Z,18.37
2018-07-04T10:22:53.369Z,19.00
2018-07-04T10:25:34.018Z,19.91
2018-07-04T10:28:14.621Z,19.06
2018-07-04T10:30:55.294Z,18.88
2018-07-04T10:33:35.781Z,18.81
2018-07-04T10:36:16.352Z,18.83
2018-07-04T10:38:56.780Z,19.31
2018-07-04T10:41:37.262Z,20.22
2018-07-04T10:44:17.884Z,21.16
2018-07-04T10:46:58.285Z,22.17
2018-07-04T10:49:38.691Z,20.92
2018-07-04T10:52:19.270Z,21.78
2018-07-04T10:54:59.855Z,21.91
2018-07-04T10:57:40.380Z,21.51
2018-07-04T11:00:20.944Z,21.63
2018-07-04T11:03:01.322Z,22.32
2018-07-04T11:05:41.938Z,22.49
2018-07-04T11:08:22.468Z,22.83
2018-07-04T11:11:02.976Z,22.77
2018-07-04T11:13:43.432Z,24.11
2018-07-04T11:16:24.056Z,23.59
2018-07-04T11:19:04.597Z,22.75
2018-07-04T11:21:45.289Z,21.45
2018-07-04T11:24:25.922Z,23.40
2018-07-04T11:27:06.517Z,24.42
2018-07-04T11:29:47.081Z,25.19
2018-07-04T11:32:27.701Z,24.03
2018-07-04T11:35:08.711Z,25.05
2018-07-04T11:37:49.181Z,25.98
2018-07-04T11:40:29.762Z,24.32
2018-07-04T11:43:10.313Z,25.04
2018-07-04T11:45:50.873Z,24.82
2018-07-04T11:48:18.840Z,24.24
2018-07-04T11:50:46.910Z,24.45
2018-07-04T11:53:14.890Z,23.84
2018-07-04T11:55:42.950Z,22.98
2018-07-04T11:58:10.919Z,24.87
2018-07-04T12:00:38.993Z,23.71
2018-07-04T12:03:15.464Z,24.10
2018-07-04T12:05:56.739Z,24.60
2018-07-04T12:08:24.765Z,22.91
2018-07-04T12:10:53.003Z,24.29
2018-07-04T12:13:22.161Z,22.23
2018-07-04T12:15:51.137Z,22.89
2018-07-04T12:18:19.143Z,22.94
2018-07-04T12:20:47.572Z,22.50
2018-07-04T12:23:15.998Z,23.44
2018-07-04T12:25:45.195Z,23.40
2018-07-04T12:28:13.149Z,22.23
2018-07-04T12:30:41.343Z,23.16
2018-07-04T12:33:09.392Z,24.00
2018-07-04T12:35:37.688Z,23.72
2018-07-04T12:38:05.858Z,23.48
2018-07-04T12:40:33.859Z,22.71
2018-07-04T12:43:01.898Z,23.64
2018-07-04T12:45:30.077Z,22.38
2018-07-04T12:47:58.123Z,23.10
2018-07-04T12:50:30.417Z,22.86
2018-07-04T12:52:58.411Z,22.56
2018-07-04T12:55:41.310Z,21.35
2018-07-04T12:58:21.779Z,23.96
2018-07-04T13:01:02.405Z,23.60
2018-07-04T13:03:42.944Z,22.90
2018-07-04T13:06:23.609Z,24.50
2018-07-04T13:09:04.605Z,25.58
2018-07-04T13:11:45.183Z,24.78
2018-07-04T13:14:25.755Z,25.72
2018-07-04T13:17:06.385Z,24.71
2018-07-04T13:19:46.758Z,25.58
2018-07-04T13:22:27.428Z,24.68
2018-07-04T13:25:08.009Z,25.37
2018-07-04T13:27:48.537Z,24.87
2018-07-04T13:30:28.947Z,25.52
2018-07-04T13:33:09.575Z,24.28
2018-07-04T13:35:50.073Z,25.21
2018-07-04T13:38:30.750Z,24.60
2018-07-04T13:41:11.153Z,25.82
2018-07-04T13:43:51.752Z,25.56
2018-07-04T13:46:32.255Z,24.43
2018-07-04T13:49:12.722Z,26.04
2018-07-04T13:51:53.161Z,25.97
2018-07-04T13:54:33.581Z,25.82
2018-07-04T13:57:14.136Z,24.33
2018-07-04T13:59:54.602Z,24.92
2018-07-04T14:02:35.067Z,25.21
2018-07-04T14:05:15.646Z,25.43
2018-07-04T14:07:56.207Z,24.77
2018-07-04T14:10:36.901Z,25.26
2018-07-04T14:13:17.544Z,25.54
2018-07-04T14:15:59.004Z,24.72
2018-07-04T14:18:39.450Z,25.55
2018-07-04T14:21:19.825Z,26.27
2018-07-04T14:24:00.508Z,26.25
2018-07-04T14:26:41.004Z,26.34
2018-07-04T14:29:21.561Z,26.33
2018-07-04T14:32:02.208Z,27.63
2018-07-04T14:34:42.881Z,27.39
2018-07-04T14:37:23.419Z,27.30
2018-07-04T14:40:04.101Z,27.72
2018-07-04T14:42:44.637Z,27.02
2018-07-04T14:45:25.137Z,26.04
2018-07-04T14:48:05.906Z,26.73
2018-07-04T14:50:46.355Z,26.01
2018-07-04T14:53:26.998Z,26.04
2018-07-04T14:56:07.553Z,25.59
2018-07-04T14:58:48.163Z,25.02
2018-07-04T15:01:28.593Z,26.18
2018-07-04T15:04:08.951Z,26.61
2018-07-04T15:06:49.430Z,24.99
2018-07-04T15:09:29.969Z,25.37
2018-07-04T15:12:10.526Z,25.13
2018-07-04T15:14:50.993Z,25.40
2018-07-04T15:17:31.474Z,25.71
2018-07-04T15:20:11.944Z,24.75
2018-07-04T15:22:52.377Z,25.21
2018-07-04T15:25:32.872Z,25.01
2018-07-04T15:28:13.588Z,25.40
2018-07-04T15:30:54.291Z,25.21
2018-07-04T15:33:34.863Z,25.07
2018-07-04T15:36:15.333Z,25.55
2018-07-04T15:38:56.222Z,25.25
2018-07-04T15:41:36.692Z,25.50
2018-07-04T15:44:17.424Z,26.48
2018-07-04T15:46:57.981Z,26.48
2018-07-04T15:49:38.656Z,25.39
2018-07-04T15:52:19.204Z,26.05
2018-07-04T15:54:59.779Z,25.70
2018-07-04T15:57:40.424Z,25.62
2018-07-04T16:00:20.913Z,25.50
2018-07-04T16:03:01.333Z,25.26
2018-07-04T16:05:42.084Z,24.62
2018-07-04T16:08:22.514Z,25.21
2018-07-04T16:11:03.243Z,24.36
2018-07-04T16:13:43.586Z,25.29
2018-07-04T16:16:24.221Z,24.14
2018-07-04T16:19:04.643Z,24.24
2018-07-04T16:21:45.177Z,23.44
2018-07-04T16:24:25.670Z,25.06
2018-07-04T16:27:06.273Z,24.36
2018-07-04T16:29:46.803Z,24.04
2018-07-04T16:32:27.312Z,23.40
2018-07-04T16:35:07.932Z,24.31
2018-07-04T16:37:48.498Z,24.58
2018-07-04T16:40:28.961Z,24.83
2018-07-04T16:43:09.416Z,24.51
2018-07-04T16:45:49.956Z,24.54
2018-07-04T16:48:30.347Z,24.86
2018-07-04T16:51:10.775Z,25.07
2018-07-04T16:53:51.264Z,24.87
2018-07-04T16:56:31.818Z,24.53
2018-07-04T16:59:12.561Z,24.33
2018-07-04T17:01:53.260Z,25.63
2018-07-04T17:04:33.664Z,27.25
2018-07-04T17:07:14.383Z,26.05
2018-07-04T17:09:55.009Z,26.47
2018-07-04T17:12:35.524Z,25.55
2018-07-04T17:15:15.940Z,25.55
2018-07-04T17:17:56.544Z,25.42
2018-07-04T17:20:37.205Z,25.54
2018-07-04T17:23:17.691Z,25.50
2018-07-04T17:25:58.435Z,27.23
2018-07-04T17:28:39.260Z,26.75
2018-07-04T17:31:19.767Z,27.44
2018-07-04T17:34:00.765Z,26.63
2018-07-04T17:36:41.281Z,26.58
2018-07-04T17:39:21.764Z,27.62
2018-07-04T17:42:02.433Z,29.54
2018-07-04T17:44:43.320Z,30.05
2018-07-04T17:47:23.873Z,28.91
2018-07-04T17:50:04.308Z,27.56
2018-07-04T17:52:44.891Z,27.81
2018-07-04T17:55:25.453Z,28.30
2018-07-04T17:58:05.972Z,28.57
2018-07-04T18:00:46.584Z,29.95
2018-07-04T18:03:27.143Z,30.03
2018-07-04T18:06:07.792Z,28.59
2018-07-04T18:08:48.489Z,29.44
2018-07-04T18:11:29.095Z,29.52
2018-07-04T18:14:09.658Z,30.38
2018-07-04T18:16:50.429Z,30.74
2018-07-04T18:19:31.091Z,31.14
2018-07-04T18:22:11.661Z,29.47
2018-07-04T18:24:52.370Z,29.66
2018-07-04T18:27:34.540Z,30.06
2018-07-04T18:30:15.243Z,30.91
2018-07-04T18:32:55.885Z,32.00
2018-07-04T18:35:36.604Z,33.18
2018-07-04T18:38:17.322Z,33.09
2018-07-04T18:40:57.862Z,33.20
2018-07-04T18:43:38.534Z,33.59
2018-07-04T18:46:19.366Z,35.21
2018-07-04T18:49:00.313Z,36.51
2018-07-04T18:51:41.122Z,35.84
2018-07-04T18:54:22.038Z,36.05
2018-07-04T18:57:02.926Z,36.52
2018-07-04T18:59:43.601Z,37.40
2018-07-04T19:02:24.397Z,37.83
2018-07-04T19:05:05.088Z,39.24
2018-07-04T19:07:45.845Z,39.70
2018-07-04T19:10:26.353Z,39.50
2018-07-04T19:13:07.128Z,39.82
2018-07-04T19:15:47.672Z,39.23
2018-07-04T19:18:28.607Z,39.70
2018-07-04T19:21:09.104Z,40.50
2018-07-04T19:23:50.237Z,40.88
2018-07-04T19:26:30.971Z,40.36
2018-07-04T19:29:11.678Z,40.96
2018-07-04T19:31:53.633Z,40.78
2018-07-04T19:34:34.224Z,42.66
2018-07-04T19:37:14.753Z,44.23
2018-07-04T19:39:55.312Z,43.57
2018-07-04T19:42:35.977Z,43.37
2018-07-04T19:45:17.426Z,43.89
2018-07-04T19:47:58.457Z,42.62
2018-07-04T19:50:39.036Z,41.76
2018-07-04T19:53:19.781Z,41.87
2018-07-04T19:56:00.768Z,42.53
2018-07-04T19:58:41.667Z,41.00
2018-07-04T20:01:22.609Z,40.25
2018-07-04T20:04:03.475Z,39.19
2018-07-04T20:06:44.138Z,39.19
2018-07-04T20:09:24.598Z,38.98
2018-07-04T20:12:05.229Z,38.20
2018-07-04T20:14:45.730Z,38.45
2018-07-04T20:17:26.288Z,38.95
2018-07-04T20:20:06.857Z,38.84
2018-07-04T20:22:48.507Z,39.26
2018-07-04T20:25:29.110Z,37.55
2018-07-04T20:28:09.701Z,38.21
2018-07-04T20:30:50.129Z,38.42
2018-07-04T20:33:30.724Z,39.41
2018-07-04T20:36:11.096Z,39.01
2018-07-04T20:38:51.721Z,40.07
2018-07-04T20:41:32.386Z,40.71
2018-07-04T20:44:13.071Z,41.66
2018-07-04T20:46:53.819Z,41.56
2018-07-04T20:49:34.469Z,42.18
2018-07-04T20:52:15.133Z,41.53
2018-07-04T20:54:55.524Z,40.42
2018-07-04T20:57:36.309Z,41.70
2018-07-04T21:00:17.254Z,42.37
2018-07-04T21:02:57.965Z,41.33
2018-07-04T21:05:38.423Z,42.08
2018-07-04T21:08:19.345Z,44.03
2018-07-04T21:11:00.974Z,45.61
2018-07-04T21:13:41.381Z,46.29
2018-07-04T21:16:22.025Z,45.43
2018-07-04T21:19:02.618Z,46.65
2018-07-04T21:21:43.313Z,48.34
2018-07-04T21:24:23.960Z,48.35
2018-07-04T21:27:04.496Z,48.32
2018-07-04T21:29:46.032Z,47.97
2018-07-04T21:32:26.674Z,47.64
2018-07-04T21:35:07.449Z,47.98
2018-07-04T21:37:48.171Z,47.22
2018-07-04T21:40:28.776Z,46.73
2018-07-04T21:43:09.301Z,47.47
2018-07-04T21:45:49.925Z,48.91
2018-07-04T21:48:30.639Z,49.20
2018-07-04T21:51:11.312Z,47.99
2018-07-04T21:53:51.960Z,48.25
2018-07-04T21:56:32.521Z,49.25
2018-07-04T21:59:13.206Z,49.37
2018-07-04T22:01:53.917Z,49.67
2018-07-04T22:04:34.553Z,49.82
2018-07-04T22:07:15.161Z,50.40
2018-07-04T22:09:55.764Z,51.04
2018-07-04T22:12:36.327Z,50.09
2018-07-04T22:15:16.809Z,50.29
2018-07-04T22:17:57.478Z,50.69
2018-07-04T22:20:38.017Z,50.42
2018-07-04T22:23:18.456Z,50.80
2018-07-04T22:25:59.139Z,50.75
2018-07-04T22:28:39.848Z,50.26
2018-07-04T22:31:20.424Z,50.40
2018-07-04T22:34:01.024Z,51.49
2018-07-04T22:36:41.453Z,52.02
2018-07-04T22:39:21.920Z,51.54
2018-07-04T22:42:02.462Z,51.50
2018-07-04T22:44:43.127Z,52.33
2018-07-04T22:47:23.805Z,53.17
2018-07-04T22:50:04.461Z,53.09
2018-07-04T22:52:44.721Z,53.80
2018-07-04T22:55:25.025Z,53.66
2018-07-04T22:58:05.229Z,54.05
2018-07-04T23:00:45.829Z,54.33
2018-07-04T23:03:26.884Z,54.17
2018-07-04T23:06:07.436Z,53.31
2018-07-04T23:08:47.969Z,52.53
2018-07-04T23:11:28.446Z,52.00
2018-07-04T23:14:09.171Z,50.83
2018-07-04T23:16:49.676Z,49.83
2018-07-04T23:19:30.539Z,50.49
2018-07-04T23:22:10.845Z,50.35
2018-07-04T23:24:51.379Z,49.17
2018-07-04T23:27:31.805Z,48.59
2018-07-04T23:30:12.382Z,48.28
2018-07-04T23:32:52.850Z,48.45
2018-07-04T23:35:33.453Z,48.78
2018-07-04T23:38:13.965Z,48.58
2018-07-04T23:40:54.516Z,48.40
2018-07-04T23:43:34.895Z,49.44
2018-07-04T23:46:15.485Z,50.15
2018-07-04T23:48:55.912Z,50.65
2018-07-04T23:51:36.665Z,51.68
2018-07-04T23:54:17.149Z,52.41
2018-07-04T23:56:57.749Z,53.88
2018-07-04T23:59:38.248Z,52.63
